Terminal Aerodrome Forecast
Issued by NWS

Home | Current Version | Previous Version | Text Only | Print | Product List | Glossary On
Versions: 1 2 3 4 5 6 7 8 9 10 11 12 13 14 15 16 17 18 19 20 21 22
000
FTUS43 KICT 310522
TAFCNU
TAF
KCNU 310522Z 3106/0106 VRB03KT 4SM BR SCT035
      TEMPO 3109/3113 2SM BR BKN015
     FM311500 16008KT P6SM SCT035
      TEMPO 3115/3118 BKN025=

USA.gov is the U.S. government's official web portal to all federal, state and local government web resources and services.